Time;durP1;ratioP1;P1;durP2;ratioP2;P2;SDS_P1;SDS_P2;PMS_P1;PMS_P2;Temp;Humidity;BMP_temperature;BMP_pressure;BME280_temperature;BME280_humidity;BME280_pressure;Samples;Min_cycle;Max_cycle;Signal;HPM_P1;HPM_P2
2023/07/15 08:55:01;;;;;;;5.43;3.77;;;38.60;49.80;;;;;;5066045;28;20496;-77
2023/07/15 08:57:28;;;;;;;5.33;4.93;;;38.10;50.60;;;;;;5062865;28;20450;-75
2023/07/15 08:59:57;;;;;;;4.13;3.70;;;38.00;50.00;;;;;;5064715;28;20459;-76
2023/07/15 09:02:24;;;;;;;4.10;3.80;;;38.10;50.00;;;;;;5059916;28;20450;-75
2023/07/15 09:04:52;;;;;;;5.50;4.73;;;38.10;49.10;;;;;;5063339;28;20561;-75
2023/07/15 09:07:26;;;;;;;6.60;5.80;;;38.00;50.20;;;;;;5059333;28;20449;-75
2023/07/15 09:09:53;;;;;;;5.10;4.60;;;38.00;51.50;;;;;;5056708;28;20507;-75
2023/07/15 09:12:24;;;;;;;4.60;3.77;;;38.80;49.90;;;;;;5065824;28;20443;-78
2023/07/15 09:14:51;;;;;;;4.50;3.00;;;38.40;49.20;;;;;;5062229;28;20512;-76
2023/07/15 09:17:21;;;;;;;4.47;4.07;;;38.50;49.90;;;;;;5064103;28;20476;-75
2023/07/15 09:22:12;;;;;;;15.60;12.17;;;36.80;50.90;;;;;;5111087;27;21036;-74
2023/07/15 09:24:39;;;;;;;6.97;6.37;;;37.30;51.80;;;;;;5107073;28;20481;-75
2023/07/15 09:27:07;;;;;;;4.53;3.53;;;37.40;51.60;;;;;;5111021;28;20440;-73
2023/07/15 09:29:35;;;;;;;6.27;3.30;;;36.70;51.30;;;;;;5113313;28;20443;-72
2023/07/15 09:32:02;;;;;;;4.90;4.00;;;36.80;52.90;;;;;;5111205;28;20843;-73
2023/07/15 09:34:29;;;;;;;7.67;3.57;;;36.70;53.90;;;;;;5110207;28;20458;-72
2023/07/15 09:36:57;;;;;;;6.33;3.37;;;36.00;52.80;;;;;;5104023;28;20454;-73
2023/07/15 09:39:25;;;;;;;5.00;3.37;;;35.60;53.40;;;;;;5104852;28;20435;-76
2023/07/15 09:42:03;;;;;;;4.83;3.50;;;36.00;53.40;;;;;;5104284;28;20484;-71
2023/07/15 09:44:35;;;;;;;4.23;3.53;;;36.20;53.20;;;;;;5099008;28;21033;-76
2023/07/15 09:47:03;;;;;;;3.60;3.30;;;35.90;53.80;;;;;;5103804;28;20545;-75
2023/07/15 09:49:31;;;;;;;5.80;3.80;;;36.20;53.50;;;;;;5104618;28;20447;-74
2023/07/15 09:51:58;;;;;;;3.37;3.07;;;36.60;53.60;;;;;;5103791;28;20534;-74
2023/07/15 09:54:27;;;;;;;5.63;3.77;;;36.90;53.00;;;;;;5104941;28;20490;-74
2023/07/15 09:56:59;;;;;;;4.30;3.57;;;36.80;52.50;;;;;;5104654;28;20520;-72
2023/07/15 09:59:31;;;;;;;3.90;3.20;;;36.40;52.40;;;;;;5103949;28;20523;-71
2023/07/15 10:02:03;;;;;;;4.33;3.10;;;36.60;53.60;;;;;;5103160;28;20492;-74
2023/07/15 10:04:33;;;;;;;3.77;3.47;;;36.60;52.70;;;;;;5108098;28;20459;-73
2023/07/15 10:07:02;;;;;;;5.93;3.30;;;36.80;52.30;;;;;;5100406;28;20941;-72
2023/07/15 10:09:31;;;;;;;6.23;3.10;;;36.90;52.40;;;;;;5105937;28;21302;-72
2023/07/15 10:12:00;;;;;;;3.27;2.87;;;36.60;53.70;;;;;;5101603;28;20520;-74
2023/07/15 10:14:31;;;;;;;3.73;3.33;;;36.40;54.10;;;;;;5103224;28;20490;-71
2023/07/15 10:17:14;;;;;;;4.07;3.77;;;36.20;53.80;;;;;;5103257;28;20492;-73
2023/07/15 10:19:47;;;;;;;3.90;3.60;;;36.60;54.00;;;;;;5099392;28;20933;-73
2023/07/15 10:22:18;;;;;;;3.60;3.30;;;36.20;53.10;;;;;;5107240;28;20484;-72
2023/07/15 10:24:55;;;;;;;5.90;3.50;;;36.40;53.10;;;;;;5101092;28;20479;-73
2023/07/15 10:27:26;;;;;;;8.53;3.17;;;35.90;54.00;;;;;;5103155;28;20447;-74
2023/07/15 10:30:16;;;;;;;3.60;3.00;;;35.10;54.10;;;;;;5104917;28;20519;-74
2023/07/15 10:33:10;;;;;;;3.13;2.77;;;34.40;55.80;;;;;;5091042;28;20456;-72
2023/07/15 10:35:48;;;;;;;3.03;2.53;;;34.40;56.40;;;;;;5090675;28;20794;-69
2023/07/15 10:38:23;;;;;;;5.03;3.00;;;34.70;56.30;;;;;;5092131;28;20448;-72
2023/07/15 10:40:52;;;;;;;4.07;3.60;;;34.80;55.60;;;;;;5089302;28;20867;-71
2023/07/15 10:43:21;;;;;;;6.80;2.83;;;34.20;56.10;;;;;;5088823;28;20938;-71
2023/07/15 10:45:53;;;;;;;6.83;3.53;;;34.30;56.50;;;;;;5092417;28;20468;-72
2023/07/15 10:48:20;;;;;;;7.90;3.10;;;33.20;57.60;;;;;;5092737;28;20452;-75
2023/07/15 10:50:49;;;;;;;3.20;2.90;;;32.80;58.70;;;;;;5081024;28;20906;-73
2023/07/15 10:53:23;;;;;;;4.53;3.20;;;32.50;60.00;;;;;;5084943;28;21047;-71
2023/07/15 10:55:59;;;;;;;2.80;2.60;;;32.10;60.60;;;;;;5093325;28;20881;-73
2023/07/15 10:58:26;;;;;;;4.40;2.83;;;31.90;61.90;;;;;;5091311;28;20535;-71
2023/07/15 11:01:00;;;;;;;3.10;2.80;;;31.70;62.60;;;;;;5093254;28;20536;-73
2023/07/15 11:03:27;;;;;;;3.43;2.63;;;31.70;63.10;;;;;;5101540;28;20489;-71
2023/07/15 11:05:57;;;;;;;3.47;3.10;;;31.60;64.20;;;;;;5084086;28;20531;-70
2023/07/15 11:08:24;;;;;;;6.07;2.50;;;31.50;63.70;;;;;;5090526;28;20440;-72
2023/07/15 11:10:58;;;;;;;2.77;2.37;;;31.30;64.50;;;;;;5091270;28;20522;-71
2023/07/15 11:13:25;;;;;;;3.30;2.80;;;31.30;65.10;;;;;;5092398;28;20463;-69
2023/07/15 11:15:53;;;;;;;3.30;3.00;;;31.00;65.60;;;;;;5088946;28;20923;-73
2023/07/15 11:18:21;;;;;;;2.70;2.47;;;30.80;66.30;;;;;;5095763;27;20445;-72
2023/07/15 11:20:49;;;;;;;5.80;2.60;;;30.50;67.30;;;;;;5087047;28;20560;-75
2023/07/15 11:23:18;;;;;;;2.70;2.47;;;30.50;67.20;;;;;;5085442;28;20858;-75
2023/07/15 11:25:45;;;;;;;13.50;2.60;;;30.00;67.40;;;;;;5090709;28;20450;-73
2023/07/15 11:28:14;;;;;;;2.93;2.43;;;30.10;68.00;;;;;;5089254;28;20822;-72
2023/07/15 11:30:42;;;;;;;4.53;2.50;;;30.10;68.10;;;;;;5092237;28;20440;-73
2023/07/15 11:33:10;;;;;;;9.40;2.53;;;30.20;69.00;;;;;;5087131;28;20665;-71
2023/07/15 11:35:39;;;;;;;3.43;2.47;;;30.10;69.20;;;;;;5092515;28;20440;-72
2023/07/15 11:38:13;;;;;;;3.83;3.00;;;29.80;69.60;;;;;;5093922;28;20439;-71
2023/07/15 11:40:51;;;;;;;5.67;3.07;;;29.70;70.60;;;;;;5085061;28;20872;-75
2023/07/15 11:43:21;;;;;;;3.80;2.40;;;29.60;71.20;;;;;;5089238;28;20460;-72
2023/07/15 11:45:48;;;;;;;3.30;2.60;;;29.50;71.30;;;;;;5089151;28;20441;-69
2023/07/15 11:48:20;;;;;;;2.53;2.33;;;29.60;71.20;;;;;;5090741;28;20785;-71
2023/07/15 11:50:48;;;;;;;3.47;2.50;;;29.70;71.50;;;;;;5088320;28;20778;-74
2023/07/15 11:53:25;;;;;;;6.93;2.70;;;29.60;71.80;;;;;;5090881;28;21097;-72
2023/07/15 11:55:52;;;;;;;3.50;2.40;;;29.70;72.10;;;;;;5091131;28;20838;-74
2023/07/15 11:58:41;;;;;;;9.23;2.80;;;29.90;71.40;;;;;;5091664;28;20539;-73
2023/07/15 12:01:16;;;;;;;4.10;2.60;;;30.30;71.40;;;;;;5089426;28;20984;-73
2023/07/15 12:03:44;;;;;;;4.40;2.30;;;30.50;70.80;;;;;;5089431;28;20542;-75
2023/07/15 12:06:16;;;;;;;2.23;2.03;;;30.80;70.80;;;;;;5088979;28;20436;-74
2023/07/15 12:08:43;;;;;;;4.40;2.50;;;31.00;70.80;;;;;;5090137;28;20464;-72
2023/07/15 12:11:18;;;;;;;3.07;2.33;;;30.80;70.40;;;;;;5087721;28;20568;-72
2023/07/15 12:13:46;;;;;;;2.93;2.50;;;30.80;70.90;;;;;;5082779;28;20504;-72
2023/07/15 12:16:13;;;;;;;5.80;2.53;;;30.80;71.40;;;;;;5084386;28;20447;-71
2023/07/15 12:18:40;;;;;;;4.60;2.50;;;30.90;70.90;;;;;;5091820;28;20523;-72
2023/07/15 12:21:06;;;;;;;4.40;2.47;;;30.50;71.50;;;;;;5091192;28;20484;-76
2023/07/15 12:23:33;;;;;;;3.03;2.60;;;30.20;73.10;;;;;;5091167;28;20472;-74
2023/07/15 12:26:01;;;;;;;2.70;2.13;;;29.70;74.60;;;;;;5087747;28;21053;-74
2023/07/15 12:28:27;;;;;;;6.30;2.70;;;29.90;75.20;;;;;;5091610;28;20855;-74
2023/07/15 12:30:56;;;;;;;2.87;2.40;;;29.60;75.80;;;;;;5088332;28;20879;-75
2023/07/15 12:33:23;;;;;;;2.30;1.83;;;29.50;76.70;;;;;;5089932;28;20538;-71
2023/07/15 12:35:49;;;;;;;3.40;2.30;;;29.30;77.80;;;;;;5091590;28;20436;-73
2023/07/15 12:38:16;;;;;;;2.43;2.23;;;29.20;78.10;;;;;;5092916;28;20806;-72
2023/07/15 12:40:46;;;;;;;2.63;2.43;;;29.00;79.30;;;;;;5092681;28;20515;-71
2023/07/15 12:43:14;;;;;;;2.00;1.63;;;28.50;80.80;;;;;;5085665;28;20786;-72
2023/07/15 12:45:41;;;;;;;4.57;2.23;;;28.40;82.10;;;;;;5092618;28;20445;-70
2023/07/15 12:48:11;;;;;;;2.77;2.30;;;28.30;83.00;;;;;;5086742;28;20459;-74
2023/07/15 12:50:37;;;;;;;5.40;2.87;;;28.20;84.20;;;;;;5087287;28;20520;-73
2023/07/15 12:53:04;;;;;;;2.77;2.47;;;27.80;86.00;;;;;;5091251;28;20488;-72
2023/07/15 12:55:31;;;;;;;3.33;2.10;;;27.70;87.70;;;;;;5089544;28;20523;-72
2023/07/15 12:57:58;;;;;;;3.20;2.30;;;27.60;88.50;;;;;;5090328;28;20501;-74
2023/07/15 13:00:25;;;;;;;2.73;2.00;;;27.70;89.00;;;;;;5087991;28;20475;-73
2023/07/15 13:02:52;;;;;;;4.50;2.00;;;27.70;89.60;;;;;;5083112;28;21668;-72
2023/07/15 13:05:20;;;;;;;3.00;2.43;;;27.80;90.00;;;;;;5087019;28;20451;-75
2023/07/15 13:07:47;;;;;;;2.97;2.60;;;28.10;90.20;;;;;;5090185;28;20997;-74
2023/07/15 13:10:14;;;;;;;4.80;3.47;;;28.20;90.20;;;;;;5087191;28;20447;-73
2023/07/15 13:12:41;;;;;;;3.43;2.30;;;28.40;90.10;;;;;;5088475;28;20497;-75
2023/07/15 13:15:09;;;;;;;2.87;2.57;;;28.70;90.10;;;;;;5091341;28;20546;-72
2023/07/15 13:17:39;;;;;;;3.40;2.70;;;28.70;89.40;;;;;;5088171;28;20540;-73
2023/07/15 13:20:09;;;;;;;4.67;2.63;;;29.00;89.60;;;;;;5085040;28;20449;-75
2023/07/15 13:22:37;;;;;;;3.10;2.47;;;29.10;88.70;;;;;;5088945;28;20491;-72
2023/07/15 13:25:07;;;;;;;3.70;2.17;;;29.10;89.00;;;;;;5095716;28;20934;-76
2023/07/15 13:27:37;;;;;;;7.07;2.47;;;29.10;90.00;;;;;;5087033;28;20448;-73
2023/07/15 13:30:05;;;;;;;2.30;2.10;;;29.20;89.60;;;;;;5089042;28;20448;-73
2023/07/15 13:32:32;;;;;;;2.70;2.13;;;29.20;89.70;;;;;;5084536;28;20472;-73
2023/07/15 13:34:59;;;;;;;3.90;2.47;;;29.10;90.10;;;;;;5090019;28;20472;-73
2023/07/15 13:37:26;;;;;;;2.70;2.07;;;28.90;90.30;;;;;;5090683;28;20446;-71
2023/07/15 13:39:55;;;;;;;2.43;2.23;;;28.90;90.50;;;;;;5091332;28;20440;-69
2023/07/15 13:42:22;;;;;;;2.70;2.50;;;28.90;90.70;;;;;;5087809;28;20551;-70
2023/07/15 13:44:49;;;;;;;2.53;2.10;;;28.60;91.10;;;;;;5089108;28;20472;-71
2023/07/15 13:47:17;;;;;;;2.60;2.37;;;28.50;91.80;;;;;;5089845;28;20488;-73
2023/07/15 13:49:44;;;;;;;4.67;1.77;;;28.30;92.40;;;;;;5086619;28;20506;-72
2023/07/15 13:52:11;;;;;;;3.33;2.27;;;28.30;92.30;;;;;;5087938;28;20452;-71
2023/07/15 13:54:39;;;;;;;6.47;3.00;;;28.30;92.10;;;;;;5084450;28;20464;-75
2023/07/15 13:57:08;;;;;;;2.53;2.33;;;28.10;92.30;;;;;;5088689;28;20789;-74
2023/07/15 13:59:35;;;;;;;2.27;2.00;;;27.90;92.60;;;;;;5089123;28;20515;-73
2023/07/15 14:02:02;;;;;;;3.97;2.83;;;27.90;92.90;;;;;;5090293;28;20507;-74
2023/07/15 14:04:29;;;;;;;5.77;2.47;;;27.90;93.10;;;;;;5088094;28;20895;-71
2023/07/15 14:06:56;;;;;;;2.93;2.53;;;27.80;93.50;;;;;;5086075;28;20528;-73
2023/07/15 14:09:27;;;;;;;2.27;2.07;;;27.80;93.70;;;;;;5094634;28;20443;-72
2023/07/15 14:11:54;;;;;;;4.00;2.37;;;27.80;93.40;;;;;;5087420;28;20440;-73
2023/07/15 14:14:22;;;;;;;3.93;2.80;;;27.70;93.70;;;;;;5085091;28;20604;-72
2023/07/15 14:16:49;;;;;;;3.70;2.90;;;27.70;93.90;;;;;;5088952;28;20443;-71
2023/07/15 14:19:17;;;;;;;3.50;2.73;;;27.70;94.30;;;;;;5091222;28;20524;-71
2023/07/15 14:21:44;;;;;;;8.53;3.03;;;27.80;94.10;;;;;;5091299;28;20480;-73
2023/07/15 14:24:11;;;;;;;2.87;2.43;;;27.80;94.00;;;;;;5092097;28;20578;-72
2023/07/15 14:26:42;;;;;;;3.30;2.57;;;28.00;94.40;;;;;;5093944;28;20527;-75
2023/07/15 14:29:13;;;;;;;4.27;3.83;;;28.20;93.90;;;;;;5092499;28;20468;-74
2023/07/15 14:31:43;;;;;;;2.87;2.67;;;28.30;93.60;;;;;;5092061;28;20441;-76
2023/07/15 14:34:10;;;;;;;3.30;2.50;;;28.30;93.20;;;;;;5090126;28;20467;-76
2023/07/15 14:36:38;;;;;;;3.63;2.40;;;28.20;93.20;;;;;;5092285;28;20429;-73
2023/07/15 14:39:05;;;;;;;3.97;2.43;;;28.20;93.60;;;;;;5092402;28;20451;-73
2023/07/15 14:41:32;;;;;;;4.33;2.67;;;28.30;93.50;;;;;;5091850;28;20455;-74
2023/07/15 14:44:05;;;;;;;3.43;2.40;;;28.20;93.30;;;;;;5095061;28;20490;-75
2023/07/15 14:46:33;;;;;;;3.13;2.27;;;28.00;93.60;;;;;;5092345;28;20452;-76
2023/07/15 14:49:01;;;;;;;2.80;2.30;;;28.30;93.90;;;;;;5094078;28;20536;-74
2023/07/15 14:51:28;;;;;;;2.53;2.27;;;28.30;93.10;;;;;;5086073;28;20441;-73
2023/07/15 14:53:55;;;;;;;3.10;2.50;;;28.40;93.20;;;;;;5090213;28;20482;-72
2023/07/15 14:56:23;;;;;;;2.80;2.60;;;28.40;92.80;;;;;;5092898;28;20444;-72
2023/07/15 14:58:54;;;;;;;3.93;2.07;;;28.60;93.10;;;;;;5089546;28;20504;-73
2023/07/15 15:01:21;;;;;;;2.80;2.27;;;29.00;92.80;;;;;;5093644;28;20898;-75
2023/07/15 15:03:48;;;;;;;2.83;2.43;;;28.90;92.30;;;;;;5094623;28;20502;-73
2023/07/15 15:06:16;;;;;;;3.80;3.40;;;28.70;92.60;;;;;;5090137;28;20462;-74
2023/07/15 15:08:43;;;;;;;2.73;2.33;;;28.70;92.70;;;;;;5088550;28;20449;-75
2023/07/15 15:11:10;;;;;;;3.00;2.30;;;28.70;93.00;;;;;;5090094;28;20451;-72
2023/07/15 15:13:37;;;;;;;4.97;2.30;;;29.00;93.00;;;;;;5086309;28;20469;-74
2023/07/15 15:16:04;;;;;;;5.00;2.57;;;29.00;93.00;;;;;;5086818;28;20484;-73
2023/07/15 15:18:31;;;;;;;3.27;2.97;;;29.10;92.90;;;;;;5092493;28;20442;-70
2023/07/15 15:20:59;;;;;;;2.80;2.43;;;29.20;92.40;;;;;;5096276;28;20496;-71
2023/07/15 15:23:27;;;;;;;2.27;2.07;;;29.00;92.50;;;;;;5094223;28;20523;-75
2023/07/15 15:25:54;;;;;;;6.93;2.20;;;28.70;92.80;;;;;;5098136;28;20553;-74
2023/07/15 15:28:21;;;;;;;3.10;2.00;;;28.80;93.20;;;;;;5088524;28;20436;-74
2023/07/15 15:30:48;;;;;;;3.10;2.43;;;28.80;93.00;;;;;;5088392;28;20509;-74
2023/07/15 15:33:15;;;;;;;4.00;3.13;;;28.70;93.10;;;;;;5090208;28;20547;-75
2023/07/15 15:35:43;;;;;;;2.87;2.67;;;28.50;93.70;;;;;;5090997;28;20450;-71
2023/07/15 15:38:10;;;;;;;5.40;2.67;;;28.60;93.40;;;;;;5096302;28;20523;-73
2023/07/15 15:40:41;;;;;;;6.93;2.40;;;28.40;93.20;;;;;;5097066;28;20464;-72
2023/07/15 15:43:08;;;;;;;2.50;2.10;;;28.40;93.10;;;;;;5099280;28;20575;-71
2023/07/15 15:45:35;;;;;;;2.97;2.43;;;28.30;93.10;;;;;;5091739;28;20440;-71
2023/07/15 15:48:02;;;;;;;4.90;3.30;;;28.00;93.50;;;;;;5089586;28;20436;-74
2023/07/15 15:50:29;;;;;;;3.57;2.30;;;27.90;93.70;;;;;;5095673;28;20493;-72
2023/07/15 15:52:56;;;;;;;2.60;2.30;;;27.90;93.90;;;;;;5087429;28;20505;-72
2023/07/15 15:55:23;;;;;;;4.63;2.80;;;28.00;93.70;;;;;;5091537;28;20472;-74
2023/07/15 15:57:51;;;;;;;5.00;2.33;;;28.00;93.80;;;;;;5089211;28;20437;-76
2023/07/15 16:00:20;;;;;;;2.57;2.30;;;28.10;93.70;;;;;;5089801;28;20444;-74
2023/07/15 16:02:51;;;;;;;3.23;2.33;;;28.20;93.60;;;;;;5087520;28;20476;-75
2023/07/15 16:05:18;;;;;;;2.53;2.33;;;28.20;93.70;;;;;;5080469;28;20480;-73
2023/07/15 16:07:48;;;;;;;3.87;2.60;;;28.40;93.60;;;;;;5089799;28;20495;-75
2023/07/15 16:10:15;;;;;;;4.47;3.10;;;28.40;93.60;;;;;;5086052;28;20926;-73
2023/07/15 16:12:42;;;;;;;4.50;2.40;;;28.20;93.50;;;;;;5086683;28;20535;-74
2023/07/15 16:15:18;;;;;;;3.07;2.20;;;28.20;93.80;;;;;;5089336;28;20432;-73
2023/07/15 16:17:44;;;;;;;2.97;2.60;;;28.10;94.00;;;;;;5090968;28;20511;-74
2023/07/15 16:20:12;;;;;;;2.13;1.93;;;28.10;93.80;;;;;;5088226;28;20518;-71
2023/07/15 16:22:39;;;;;;;2.17;1.90;;;28.00;93.80;;;;;;5095545;28;20468;-72
2023/07/15 16:25:08;;;;;;;2.30;1.90;;;27.90;93.40;;;;;;5092585;28;21034;-70
2023/07/15 16:27:35;;;;;;;2.33;2.10;;;27.90;93.50;;;;;;5086873;28;20441;-70
2023/07/15 16:30:02;;;;;;;2.70;2.17;;;27.90;93.70;;;;;;5084801;28;21062;-72
2023/07/15 16:32:30;;;;;;;2.40;2.20;;;28.00;93.60;;;;;;5089835;28;20516;-72
2023/07/15 16:34:57;;;;;;;2.33;2.07;;;28.00;93.60;;;;;;5085980;28;20529;-72
2023/07/15 16:37:24;;;;;;;3.60;2.63;;;27.90;93.70;;;;;;5090217;28;20585;-71
2023/07/15 16:39:51;;;;;;;2.37;2.17;;;27.90;93.70;;;;;;5087762;28;20946;-74
2023/07/15 16:42:18;;;;;;;3.90;3.50;;;27.80;93.80;;;;;;5086298;28;20493;-74
2023/07/15 16:44:45;;;;;;;4.40;2.67;;;27.60;94.20;;;;;;5088656;28;20571;-71
2023/07/15 16:47:13;;;;;;;4.73;3.43;;;27.60;94.50;;;;;;5089924;28;20543;-72
2023/07/15 16:49:43;;;;;;;3.90;3.50;;;27.50;94.70;;;;;;5090564;28;20444;-74
2023/07/15 16:52:10;;;;;;;3.40;2.93;;;27.50;94.80;;;;;;5091363;28;20469;-71
2023/07/15 16:54:37;;;;;;;2.37;2.00;;;27.60;94.90;;;;;;5089310;28;20467;-74
2023/07/15 16:57:05;;;;;;;4.47;3.03;;;27.60;94.80;;;;;;5088540;28;20441;-72
2023/07/15 16:59:32;;;;;;;4.50;2.60;;;27.50;95.00;;;;;;5082421;28;20436;-73
2023/07/15 17:01:59;;;;;;;8.73;3.10;;;27.40;95.10;;;;;;5089777;28;20468;-71
2023/07/15 17:04:26;;;;;;;3.40;3.10;;;27.40;95.10;;;;;;5089891;28;20837;-74
2023/07/15 17:06:56;;;;;;;3.60;3.30;;;27.20;95.50;;;;;;5091938;28;20471;-73
2023/07/15 17:09:24;;;;;;;3.07;2.77;;;27.30;95.50;;;;;;5088101;28;20527;-71
2023/07/15 17:11:51;;;;;;;3.03;2.57;;;27.10;95.70;;;;;;5082058;28;20508;-75
2023/07/15 17:14:17;;;;;;;3.40;2.60;;;27.00;96.00;;;;;;5088542;28;20540;-72
2023/07/15 17:16:44;;;;;;;4.00;2.60;;;27.10;96.30;;;;;;5090542;28;20524;-74
2023/07/15 17:19:12;;;;;;;5.63;2.67;;;27.10;96.20;;;;;;5089496;28;20448;-72
2023/07/15 17:21:40;;;;;;;3.30;2.70;;;27.10;96.40;;;;;;5086961;28;20533;-73
2023/07/15 17:24:08;;;;;;;4.87;3.87;;;27.20;96.30;;;;;;5089246;28;20563;-72
2023/07/15 17:26:35;;;;;;;5.17;3.60;;;27.30;96.30;;;;;;5082721;28;20477;-73
2023/07/15 17:29:02;;;;;;;3.70;3.40;;;27.40;96.10;;;;;;5092218;28;20452;-72
2023/07/15 17:31:29;;;;;;;5.70;3.00;;;27.50;95.80;;;;;;5092714;28;20436;-74
2023/07/15 17:34:04;;;;;;;3.97;3.57;;;27.70;95.70;;;;;;5092083;28;20557;-72
2023/07/15 17:36:31;;;;;;;4.03;3.17;;;27.70;95.60;;;;;;5099360;28;20456;-74
2023/07/15 17:38:59;;;;;;;4.00;3.60;;;27.70;95.40;;;;;;5098060;28;20436;-72
2023/07/15 17:41:30;;;;;;;3.97;3.13;;;27.60;95.40;;;;;;5090219;28;20440;-74
2023/07/15 17:43:59;;;;;;;3.50;2.87;;;27.70;95.30;;;;;;5098087;28;20505;-74
2023/07/15 17:46:27;;;;;;;6.53;3.53;;;27.70;95.40;;;;;;5085819;28;20459;-78
2023/07/15 17:48:54;;;;;;;3.53;3.20;;;27.70;95.40;;;;;;5094559;28;20501;-73
2023/07/15 17:51:21;;;;;;;4.87;3.47;;;27.60;95.20;;;;;;5101474;28;20760;-73
2023/07/15 17:53:50;;;;;;;4.63;3.30;;;27.50;95.30;;;;;;5101183;28;20452;-74
2023/07/15 17:56:18;;;;;;;4.57;3.17;;;27.40;95.30;;;;;;5092128;28;20459;-73
2023/07/15 17:58:49;;;;;;;3.70;3.40;;;27.50;95.40;;;;;;5094651;28;20502;-73
2023/07/15 18:01:17;;;;;;;4.20;3.60;;;27.50;95.20;;;;;;5095608;28;20452;-75
2023/07/15 18:03:48;;;;;;;4.83;3.47;;;27.40;94.80;;;;;;5095877;28;20483;-73
2023/07/15 18:06:16;;;;;;;6.97;3.83;;;27.50;95.10;;;;;;5090934;28;20861;-73
2023/07/15 18:08:45;;;;;;;3.70;3.40;;;27.50;94.80;;;;;;5098060;28;20809;-75
2023/07/15 18:11:12;;;;;;;5.80;4.10;;;27.50;94.70;;;;;;5093049;28;20942;-73
2023/07/15 18:13:39;;;;;;;5.77;4.43;;;27.40;94.40;;;;;;5084796;28;20479;-73
2023/07/15 18:16:07;;;;;;;5.00;4.60;;;27.30;94.10;;;;;;5087282;28;20519;-75
2023/07/15 18:18:34;;;;;;;5.10;2.83;;;27.50;93.90;;;;;;5090859;28;20465;-74
2023/07/15 18:21:01;;;;;;;4.33;3.23;;;27.50;93.50;;;;;;5093676;28;20490;-74
2023/07/15 18:23:28;;;;;;;5.60;3.23;;;27.50;93.20;;;;;;5094471;28;20564;-73
2023/07/15 18:25:59;;;;;;;3.23;3.03;;;27.30;92.90;;;;;;5093693;28;20451;-76
2023/07/15 18:28:26;;;;;;;3.40;3.10;;;27.30;92.90;;;;;;5087166;28;20451;-73
2023/07/15 18:30:52;;;;;;;4.43;3.50;;;27.20;92.80;;;;;;5083814;28;20448;-73
2023/07/15 18:33:21;;;;;;;6.20;3.50;;;27.00;92.60;;;;;;5090530;28;20462;-74
2023/07/15 18:35:48;;;;;;;6.87;5.07;;;26.90;92.60;;;;;;5090335;28;20483;-74
2023/07/15 18:38:15;;;;;;;5.20;4.40;;;26.90;92.90;;;;;;5094164;28;20943;-73
2023/07/15 18:40:42;;;;;;;5.77;3.50;;;26.80;93.00;;;;;;5092947;28;20452;-72
2023/07/15 18:43:09;;;;;;;5.47;3.20;;;26.80;93.20;;;;;;5091335;28;20556;-76
2023/07/15 18:45:36;;;;;;;4.40;3.87;;;26.60;93.40;;;;;;5090367;28;20444;-74
2023/07/15 18:48:05;;;;;;;6.50;3.87;;;26.60;93.70;;;;;;5085241;28;20503;-73
2023/07/15 18:50:33;;;;;;;5.17;3.97;;;26.50;93.80;;;;;;5091926;28;20487;-73
2023/07/15 18:53:01;;;;;;;5.03;3.80;;;26.40;94.00;;;;;;5084277;28;20461;-72
2023/07/15 18:55:28;;;;;;;4.97;4.40;;;26.50;94.30;;;;;;5087561;28;20467;-72
2023/07/15 18:57:55;;;;;;;4.57;4.17;;;26.40;94.40;;;;;;5090804;28;20597;-73
2023/07/15 19:00:22;;;;;;;5.83;5.00;;;26.40;94.60;;;;;;5087193;28;20473;-72
2023/07/15 19:02:49;;;;;;;6.27;4.40;;;26.30;94.80;;;;;;5081383;28;20447;-72
2023/07/15 19:05:18;;;;;;;6.77;3.37;;;26.30;95.10;;;;;;5096367;28;20516;-75
2023/07/15 19:07:48;;;;;;;5.17;4.10;;;26.20;95.30;;;;;;5095084;28;20477;-73
2023/07/15 19:10:16;;;;;;;4.30;3.50;;;26.10;95.50;;;;;;5096514;28;20502;-74
2023/07/15 19:12:44;;;;;;;7.07;4.10;;;26.10;95.60;;;;;;5094459;28;20456;-72
2023/07/15 19:15:12;;;;;;;5.40;4.00;;;26.10;95.90;;;;;;5094953;28;20859;-76
2023/07/15 19:17:39;;;;;;;4.37;3.97;;;26.00;95.90;;;;;;5096485;28;20443;-75
2023/07/15 19:20:10;;;;;;;4.10;3.57;;;26.10;96.10;;;;;;5087145;28;20532;-75
2023/07/15 19:22:41;;;;;;;4.37;3.97;;;25.90;96.20;;;;;;5092367;28;20448;-75
2023/07/15 19:25:10;;;;;;;5.10;4.17;;;25.90;96.50;;;;;;5094554;28;20486;-73
2023/07/15 19:27:38;;;;;;;7.43;5.30;;;25.90;96.80;;;;;;5098586;28;20444;-74
2023/07/15 19:30:06;;;;;;;4.97;4.50;;;25.80;97.00;;;;;;5089071;28;20446;-75
2023/07/15 19:32:33;;;;;;;7.50;5.50;;;25.80;97.30;;;;;;5093960;28;20435;-72
2023/07/15 19:35:00;;;;;;;5.40;4.43;;;25.70;97.70;;;;;;5091738;28;20462;-74
2023/07/15 19:37:28;;;;;;;7.20;5.23;;;25.60;98.00;;;;;;5091757;28;20476;-72
2023/07/15 19:39:55;;;;;;;8.60;5.10;;;25.50;98.40;;;;;;5092953;28;20527;-75
2023/07/15 19:42:23;;;;;;;8.83;6.30;;;25.50;98.80;;;;;;5088341;28;20782;-76
2023/07/15 19:44:50;;;;;;;7.20;4.67;;;25.40;99.00;;;;;;5079292;28;20855;-74
2023/07/15 19:47:17;;;;;;;6.67;4.80;;;25.40;99.30;;;;;;5087746;28;20989;-75
2023/07/15 19:49:45;;;;;;;8.23;4.83;;;25.30;99.60;;;;;;5092015;28;20451;-73
2023/07/15 19:52:13;;;;;;;4.93;4.53;;;25.30;99.80;;;;;;5087171;28;20452;-76
2023/07/15 19:54:40;;;;;;;5.47;4.87;;;25.30;99.90;;;;;;5085509;28;20498;-72
2023/07/15 19:57:07;;;;;;;6.47;5.17;;;25.30;99.90;;;;;;5087297;28;21002;-74
2023/07/15 19:59:38;;;;;;;5.90;5.40;;;25.30;99.90;;;;;;5085665;28;20501;-74
2023/07/15 20:02:05;;;;;;;5.90;5.17;;;25.30;99.90;;;;;;5092555;28;20425;-72
2023/07/15 20:04:34;;;;;;;6.37;5.80;;;25.30;99.90;;;;;;5089764;28;21039;-71
2023/07/15 20:07:03;;;;;;;8.57;6.17;;;25.20;99.90;;;;;;5097898;22;20553;-82
2023/07/15 20:09:36;;;;;;;6.00;5.40;;;25.10;99.90;;;;;;5041212;28;20939;-82
2023/07/15 20:12:03;;;;;;;4.67;3.77;;;25.10;99.90;;;;;;5046581;28;20464;-81
2023/07/15 20:14:30;;;;;;;4.40;3.10;;;25.10;99.90;;;;;;5053542;28;20457;-84
2023/07/15 20:16:58;;;;;;;4.13;2.50;;;24.80;99.90;;;;;;5055608;28;20500;-82
2023/07/15 20:19:25;;;;;;;5.07;3.50;;;24.50;99.90;;;;;;5046103;28;20501;-83
2023/07/15 20:21:53;;;;;;;7.20;6.30;;;24.20;99.90;;;;;;5045771;28;20443;-82
2023/07/15 20:24:20;;;;;;;3.63;2.73;;;23.80;99.90;;;;;;5046816;28;20465;-82
2023/07/15 20:26:46;;;;;;;3.63;2.80;;;23.60;99.90;;;;;;5051009;28;20463;-82
2023/07/15 20:29:13;;;;;;;4.17;2.23;;;23.40;99.90;;;;;;5052876;28;20461;-82
2023/07/15 20:31:40;;;;;;;6.03;3.67;;;23.20;99.90;;;;;;5047894;28;20969;-83
2023/07/15 20:34:09;;;;;;;7.60;3.63;;;23.10;99.90;;;;;;5044942;28;20434;-82
2023/07/15 20:36:36;;;;;;;16.53;4.10;;;23.00;99.90;;;;;;5038490;28;20465;-81
2023/07/15 20:39:04;;;;;;;5.33;3.10;;;22.90;99.90;;;;;;5045485;28;20457;-81
2023/07/15 20:41:31;;;;;;;3.50;2.40;;;22.80;99.90;;;;;;5044965;28;20449;-84
2023/07/15 20:44:04;;;;;;;6.53;4.23;;;22.80;99.90;;;;;;5046184;28;20509;-87
2023/07/15 20:46:52;;;;;;;3.60;1.73;;;22.80;99.90;;;;;;5044155;28;20453;-85
2023/07/15 20:56:05;;;;;;;5.73;2.50;;;22.50;99.90;;;;;;5064534;22;21284;-76
2023/07/15 20:58:32;;;;;;;13.40;3.37;;;22.40;99.90;;;;;;5042746;28;20524;-79
2023/07/15 21:01:00;;;;;;;16.57;4.70;;;22.10;99.90;;;;;;5052276;28;20445;-80
2023/07/15 21:03:26;;;;;;;8.97;3.50;;;21.80;99.90;;;;;;5043224;28;20544;-79
2023/07/15 21:05:57;;;;;;;5.30;3.00;;;21.20;99.90;;;;;;5039544;28;20439;-82
2023/07/15 21:08:25;;;;;;;10.17;2.70;;;20.80;99.90;;;;;;5036118;28;20460;-79
2023/07/15 21:10:53;;;;;;;16.57;4.30;;;20.60;99.90;;;;;;5038232;28;20907;-78
2023/07/15 21:13:22;;;;;;;6.60;3.20;;;20.40;99.90;;;;;;5042223;28;20492;-76
2023/07/15 21:15:49;;;;;;;8.97;3.37;;;20.30;99.90;;;;;;5041012;28;20985;-76
2023/07/15 21:18:20;;;;;;;4.13;2.67;;;20.10;99.90;;;;;;5040304;28;20502;-79
2023/07/15 21:20:47;;;;;;;6.63;2.87;;;20.00;99.90;;;;;;5032602;28;20457;-81
2023/07/15 21:23:14;;;;;;;6.70;3.77;;;20.00;99.90;;;;;;5034155;28;20926;-80
2023/07/15 21:25:41;;;;;;;7.73;3.90;;;19.90;99.90;;;;;;5039917;28;20487;-83
2023/07/15 21:28:08;;;;;;;6.90;3.70;;;19.90;99.90;;;;;;5040903;28;20452;-79
2023/07/15 21:30:41;;;;;;;9.63;4.33;;;19.80;99.90;;;;;;5029377;28;20433;-81
2023/07/15 21:33:08;;;;;;;4.53;2.80;;;19.70;99.90;;;;;;5029608;28;20496;-78
2023/07/15 21:35:35;;;;;;;3.57;3.03;;;19.70;99.90;;;;;;5041383;28;20444;-80
2023/07/15 21:38:02;;;;;;;5.90;4.97;;;19.70;99.90;;;;;;5041406;28;20427;-81
2023/07/15 21:40:29;;;;;;;10.43;8.70;;;19.70;99.90;;;;;;5038220;28;20964;-80
2023/07/15 21:42:56;;;;;;;6.33;5.73;;;19.70;99.90;;;;;;5041723;28;20578;-82
2023/07/15 21:45:23;;;;;;;5.67;3.50;;;19.70;99.90;;;;;;5035892;28;20550;-81
2023/07/15 21:47:52;;;;;;;7.70;5.77;;;19.70;99.90;;;;;;5044195;28;20446;-80
2023/07/15 21:50:19;;;;;;;3.33;2.40;;;19.80;99.90;;;;;;5042947;28;20457;-78
2023/07/15 21:52:47;;;;;;;4.53;2.13;;;19.80;99.90;;;;;;5040376;28;20512;-78
2023/07/15 21:55:14;;;;;;;6.23;2.77;;;19.90;99.90;;;;;;5045972;28;20524;-78